West End, Illinois
Current Conditions -  °F | °C
As of 8:35 PM on Saturday 22 Nov 2014 (Local Time) from KHSB Reporting Station
Broken Clouds Broken Clouds  
Wind Chill: 60°   Ceiling: 6000
Heat Index: 60°   Visibility: 10mi
Dew Point: 36°   Wind: 10mph
Humidity: 41%   Direction: 190°S
Pressure: 30.01"   Gusts: 16mph
Location:  37.8635°N, 88.7619°W
Report Text: KHSB 230235Z AUTO 19009G14KT 10SM SCT047 BKN060 16/02 A3001 RMK AO2 T01560024
Loading
Personal Weather Stations






























Interactive Weather Map New forecast layout! Learn more

10-Day Weather Forecast

Advertisements
Track Severe Weather on mobile